Time;durP1;ratioP1;P1;durP2;ratioP2;P2;SDS_P1;SDS_P2;PMS_P1;PMS_P2;Temp;Humidity;BMP_temperature;BMP_pressure;BME280_temperature;BME280_humidity;BME280_pressure;Samples;Min_cycle;Max_cycle;Signal;HPM_P1;HPM_P2
2023/11/07 00:00:53;;;;;;;;;;;;;;;25.34;22.42;97768.44;5052840;28;19916;-92
2023/11/07 00:03:20;;;;;;;;;;;;;;;25.61;22.31;97761.59;5052476;28;19925;-92
2023/11/07 00:05:45;;;;;;;;;;;;;;;26.07;21.66;97769.25;5052250;28;19929;-92
2023/11/07 00:08:11;;;;;;;;;;;;;;;26.34;21.41;97765.94;5050354;28;20340;-92
2023/11/07 00:10:38;;;;;;;;;;;;;;;26.36;21.33;97772.66;5051151;28;19925;-92
2023/11/07 00:13:04;;;;;;;;;;;;;;;26.66;21.17;97771.16;5051163;28;20015;-92
2023/11/07 00:15:30;;;;;;;;;;;;;;;26.79;20.58;97776.78;5051817;28;19921;-93
2023/11/07 00:17:56;;;;;;;;;;;;;;;26.86;20.52;97773.69;5052329;28;19931;-92
2023/11/07 00:20:22;;;;;;;;;;;;;;;26.60;21.04;97779.44;5049292;28;20007;-92
2023/11/07 00:22:48;;;;;;;;;;;;;;;26.24;21.14;97776.31;5042640;28;19926;-92
2023/11/07 00:25:14;;;;;;;;;;;;;;;25.96;21.61;97780.09;5052593;28;19928;-91
2023/11/07 00:27:40;;;;;;;;;;;;;;;26.13;21.45;97790.00;5051292;28;19924;-92
2023/11/07 00:30:06;;;;;;;;;;;;;;;26.21;21.79;97790.53;5037917;28;19925;-92
2023/11/07 00:32:33;;;;;;;;;;;;;;;26.38;21.19;97786.28;5051387;28;20437;-91
2023/11/07 00:34:59;;;;;;;;;;;;;;;26.14;21.13;97790.78;5040401;28;20020;-92
2023/11/07 00:37:25;;;;;;;;;;;;;;;26.23;21.88;97791.66;5052353;28;19960;-92
2023/11/07 00:39:51;;;;;;;;;;;;;;;26.17;21.30;97793.44;5051938;28;19917;-91
2023/11/07 00:42:19;;;;;;;;;;;;;;;25.84;22.00;97786.53;5053673;28;19971;-92
2023/11/07 00:44:46;;;;;;;;;;;;;;;25.77;22.23;97792.38;5051696;28;20015;-92
2023/11/07 00:47:14;;;;;;;;;;;;;;;25.73;22.13;97797.34;5042296;28;19921;-93
2023/11/07 00:49:40;;;;;;;;;;;;;;;25.84;22.12;97789.34;5051916;28;20015;-92
2023/11/07 00:52:06;;;;;;;;;;;;;;;25.81;22.37;97790.25;5050739;28;20370;-93
2023/11/07 00:54:32;;;;;;;;;;;;;;;25.88;22.56;97790.03;5049222;28;19988;-92
2023/11/07 00:56:59;;;;;;;;;;;;;;;26.09;21.98;97790.06;5051763;28;19940;-91
2023/11/07 00:59:25;;;;;;;;;;;;;;;26.19;21.80;97788.16;5052169;28;19928;-93
2023/11/07 01:01:51;;;;;;;;;;;;;;;26.31;21.51;97781.69;5047344;28;19925;-93
2023/11/07 01:04:17;;;;;;;;;;;;;;;26.41;22.06;97783.34;5050434;28;19917;-92
2023/11/07 01:06:43;;;;;;;;;;;;;;;26.57;21.56;97788.00;5049679;28;19927;-92
2023/11/07 01:09:12;;;;;;;;;;;;;;;26.64;21.35;97787.75;5044609;28;20370;-92
2023/11/07 01:11:39;;;;;;;;;;;;;;;26.55;22.09;97798.94;5046586;28;19921;-92
2023/11/07 01:14:09;;;;;;;;;;;;;;;26.60;21.79;97796.34;5047772;28;20075;-92
2023/11/07 01:16:35;;;;;;;;;;;;;;;26.58;21.31;97804.44;5048482;28;19927;-92
2023/11/07 01:19:01;;;;;;;;;;;;;;;26.59;21.58;97797.56;5048600;28;19925;-94
2023/11/07 01:21:27;;;;;;;;;;;;;;;26.16;21.92;97797.53;5050190;28;19925;-92
2023/11/07 01:23:53;;;;;;;;;;;;;;;26.01;21.80;97793.59;5046295;28;20267;-93
2023/11/07 01:26:19;;;;;;;;;;;;;;;26.21;22.07;97796.91;5045077;28;20440;-93
2023/11/07 01:28:45;;;;;;;;;;;;;;;26.31;22.05;97789.34;5051167;28;19920;-92
2023/11/07 01:31:11;;;;;;;;;;;;;;;26.57;21.20;97797.25;5051886;28;19920;-93
2023/11/07 01:33:37;;;;;;;;;;;;;;;26.48;21.76;97799.19;5049827;28;19945;-94
2023/11/07 01:36:03;;;;;;;;;;;;;;;26.35;22.13;97802.06;5049700;28;19929;-93
2023/11/07 01:38:29;;;;;;;;;;;;;;;26.54;22.10;97803.78;5054804;28;19921;-93
2023/11/07 01:40:55;;;;;;;;;;;;;;;26.46;21.53;97816.56;5053795;28;20497;-93
2023/11/07 01:43:23;;;;;;;;;;;;;;;26.51;21.74;97809.56;5054832;28;19916;-92
2023/11/07 01:45:49;;;;;;;;;;;;;;;26.70;21.40;97812.03;5055483;28;20015;-93
2023/11/07 01:48:20;;;;;;;;;;;;;;;26.83;21.63;97806.38;5052498;28;20017;-93
2023/11/07 01:50:47;;;;;;;;;;;;;;;27.05;21.26;97809.19;5058463;28;19929;-92
2023/11/07 01:53:13;;;;;;;;;;;;;;;26.68;21.80;97814.53;5052886;28;19931;-93
2023/11/07 01:55:43;;;;;;;;;;;;;;;26.67;21.62;97803.72;5045137;28;19936;-93
2023/11/07 01:58:09;;;;;;;;;;;;;;;26.72;21.82;97806.72;5050750;28;20416;-93
2023/11/07 02:00:39;;;;;;;;;;;;;;;26.62;22.11;97807.94;5054430;28;19920;-94
2023/11/07 02:03:06;;;;;;;;;;;;;;;26.93;21.89;97813.66;5053055;28;19921;-93
2023/11/07 02:05:33;;;;;;;;;;;;;;;26.89;21.77;97810.16;5051050;28;19928;-94
2023/11/07 02:07:59;;;;;;;;;;;;;;;26.86;21.62;97805.47;5046128;28;19920;-95
2023/11/07 02:10:25;;;;;;;;;;;;;;;26.84;21.91;97805.13;5053726;28;20300;-95
2023/11/07 02:12:54;;;;;;;;;;;;;;;26.99;21.80;97805.38;5052602;28;19927;-94
2023/11/07 02:15:22;;;;;;;;;;;;;;;27.12;21.61;97804.03;5053792;28;19925;-94
2023/11/07 02:17:49;;;;;;;;;;;;;;;27.03;21.61;97797.56;5051981;28;19974;-94
2023/11/07 02:20:16;;;;;;;;;;;;;;;27.18;21.15;97796.56;5053811;28;20436;-94
2023/11/07 02:22:44;;;;;;;;;;;;;;;27.23;20.89;97804.44;5053287;28;19937;-94
2023/11/07 02:25:12;;;;;;;;;;;;;;;27.04;21.43;97808.38;5045590;28;19987;-94
2023/11/07 02:27:38;;;;;;;;;;;;;;;26.90;21.47;97813.78;5050310;28;19929;-93
2023/11/07 02:30:06;;;;;;;;;;;;;;;27.01;21.31;97814.16;5052020;28;20378;-93
2023/11/07 02:32:34;;;;;;;;;;;;;;;27.14;20.91;97814.88;5047201;28;19967;-93
2023/11/07 02:35:00;;;;;;;;;;;;;;;27.01;21.49;97817.75;5050575;28;19980;-92
2023/11/07 02:37:26;;;;;;;;;;;;;;;26.99;21.23;97819.47;5053874;28;19963;-92
2023/11/07 02:39:52;;;;;;;;;;;;;;;26.81;21.61;97827.78;5053611;28;19927;-91
2023/11/07 02:42:18;;;;;;;;;;;;;;;26.84;21.35;97826.88;5042205;28;19929;-93
2023/11/07 02:44:44;;;;;;;;;;;;;;;26.96;21.59;97829.63;5046217;28;19929;-93
2023/11/07 02:47:10;;;;;;;;;;;;;;;26.95;21.33;97827.28;5049059;28;19920;-93
2023/11/07 02:49:36;;;;;;;;;;;;;;;27.01;21.54;97831.06;5038821;28;19921;-93
2023/11/07 02:52:03;;;;;;;;;;;;;;;26.90;21.20;97836.31;5050273;28;19992;-93
2023/11/07 02:54:32;;;;;;;;;;;;;;;26.65;21.50;97831.56;5042793;28;19939;-93
2023/11/07 02:56:58;;;;;;;;;;;;;;;26.17;22.37;97834.88;5039768;28;19925;-93
2023/11/07 02:59:24;;;;;;;;;;;;;;;26.27;22.08;97833.72;5051332;28;19966;-93
2023/11/07 03:01:50;;;;;;;;;;;;;;;26.42;21.97;97840.44;5046110;28;19916;-93
2023/11/07 03:04:17;;;;;;;;;;;;;;;26.11;22.49;97840.31;5054237;28;19947;-93
2023/11/07 03:06:43;;;;;;;;;;;;;;;26.22;22.24;97839.94;5039949;28;19917;-92
2023/11/07 03:09:10;;;;;;;;;;;;;;;26.40;22.11;97842.91;5049118;28;19925;-94
2023/11/07 03:11:36;;;;;;;;;;;;;;;26.80;21.58;97835.47;5034916;28;19956;-93
2023/11/07 03:14:02;;;;;;;;;;;;;;;27.03;20.82;97831.38;5054283;28;20338;-92
2023/11/07 03:16:28;;;;;;;;;;;;;;;27.12;20.59;97831.47;5055195;28;19956;-94
2023/11/07 03:18:54;;;;;;;;;;;;;;;26.61;21.19;97826.06;5046611;28;20366;-94
2023/11/07 03:21:20;;;;;;;;;;;;;;;26.34;21.97;97834.28;5054419;28;19931;-94
2023/11/07 03:23:46;;;;;;;;;;;;;;;26.29;21.85;97831.25;5050814;28;19933;-95
2023/11/07 03:26:13;;;;;;;;;;;;;;;26.35;21.76;97829.44;5052179;28;19943;-93
2023/11/07 03:28:38;;;;;;;;;;;;;;;26.30;21.91;97836.41;5050159;28;19935;-92
2023/11/07 03:31:05;;;;;;;;;;;;;;;26.07;22.43;97836.78;5042832;28;19917;-93
2023/11/07 03:33:31;;;;;;;;;;;;;;;26.05;22.25;97830.81;5041708;28;19917;-93
2023/11/07 03:35:57;;;;;;;;;;;;;;;25.99;22.63;97835.47;5050444;28;20283;-94
2023/11/07 03:38:23;;;;;;;;;;;;;;;26.12;22.30;97830.59;5050959;28;19920;-95
2023/11/07 03:40:49;;;;;;;;;;;;;;;26.36;21.89;97828.19;5049231;28;19968;-95
2023/11/07 03:43:16;;;;;;;;;;;;;;;26.57;21.54;97831.03;5039419;28;19929;-95
2023/11/07 03:45:42;;;;;;;;;;;;;;;26.83;21.24;97830.94;5050061;28;19921;-95
2023/11/07 03:48:08;;;;;;;;;;;;;;;26.83;21.26;97842.22;5043353;28;20427;-93
2023/11/07 03:50:34;;;;;;;;;;;;;;;26.44;21.80;97832.34;5053762;28;19975;-96
2023/11/07 03:53:00;;;;;;;;;;;;;;;26.36;21.54;97831.00;5040423;28;19925;-95
2023/11/07 03:55:26;;;;;;;;;;;;;;;26.03;22.08;97838.94;5037875;28;19925;-95
2023/11/07 03:57:52;;;;;;;;;;;;;;;26.03;22.08;97839.72;5035589;28;19925;-94
2023/11/07 04:00:19;;;;;;;;;;;;;;;26.27;22.37;97839.34;5039592;28;19929;-96
2023/11/07 04:02:45;;;;;;;;;;;;;;;26.62;21.74;97836.09;5044424;28;19921;-95
2023/11/07 04:05:14;;;;;;;;;;;;;;;26.71;21.28;97836.16;5049148;28;20011;-94
2023/11/07 04:07:40;;;;;;;;;;;;;;;26.74;21.15;97840.09;5043074;28;19920;-95
2023/11/07 04:10:06;;;;;;;;;;;;;;;26.63;21.39;97840.47;5049916;28;20368;-94
2023/11/07 04:12:32;;;;;;;;;;;;;;;26.46;21.54;97846.75;5045576;28;19925;-95
2023/11/07 04:14:58;;;;;;;;;;;;;;;26.47;21.58;97843.44;5044338;28;20030;-94
2023/11/07 04:17:24;;;;;;;;;;;;;;;26.57;21.29;97838.69;5053813;28;19916;-93
2023/11/07 04:19:50;;;;;;;;;;;;;;;26.04;22.21;97844.09;5053663;28;19999;-92
2023/11/07 04:22:16;;;;;;;;;;;;;;;26.11;21.82;97848.75;5054357;28;19974;-93
2023/11/07 04:24:43;;;;;;;;;;;;;;;26.22;22.16;97842.75;5055682;28;19921;-94
2023/11/07 04:27:10;;;;;;;;;;;;;;;26.43;21.75;97847.63;5053312;28;19921;-93
2023/11/07 04:29:36;;;;;;;;;;;;;;;26.33;21.84;97837.53;5042033;28;19968;-92
2023/11/07 04:32:02;;;;;;;;;;;;;;;26.27;21.64;97837.34;5050391;28;19920;-95
2023/11/07 04:34:28;;;;;;;;;;;;;;;26.50;21.81;97842.56;5048911;28;19925;-94
2023/11/07 04:36:54;;;;;;;;;;;;;;;26.48;21.96;97845.03;5037802;28;20011;-95
2023/11/07 04:39:20;;;;;;;;;;;;;;;26.43;21.89;97850.44;5048433;28;19921;-94
2023/11/07 04:41:47;;;;;;;;;;;;;;;26.28;22.07;97843.75;5053221;28;19988;-96
2023/11/07 04:44:15;;;;;;;;;;;;;;;26.28;21.84;97843.75;5041871;28;20358;-94
2023/11/07 04:46:42;;;;;;;;;;;;;;;26.22;21.75;97840.72;5053144;28;19960;-94
2023/11/07 04:49:09;;;;;;;;;;;;;;;26.44;21.11;97850.00;5036906;28;19960;-95
2023/11/07 04:51:36;;;;;;;;;;;;;;;26.29;21.57;97846.13;5042836;28;20013;-94
2023/11/07 04:54:02;;;;;;;;;;;;;;;26.42;21.84;97846.09;5065320;28;20007;-94
2023/11/07 04:56:28;;;;;;;;;;;;;;;26.32;22.04;97847.22;5048156;28;19963;-94
2023/11/07 04:58:54;;;;;;;;;;;;;;;26.52;21.74;97847.72;5049082;28;19928;-94
2023/11/07 05:01:23;;;;;;;;;;;;;;;26.63;21.60;97848.91;5033278;28;19921;-94
2023/11/07 05:03:49;;;;;;;;;;;;;;;26.57;21.55;97852.78;5036300;28;19921;-95
2023/11/07 05:06:18;;;;;;;;;;;;;;;26.44;22.23;97852.81;5044392;28;19947;-95
2023/11/07 05:08:45;;;;;;;;;;;;;;;26.45;21.78;97853.59;5051205;28;19920;-95
2023/11/07 05:11:17;;;;;;;;;;;;;;;26.35;22.22;97852.72;5047837;28;19930;-94
2023/11/07 05:13:44;;;;;;;;;;;;;;;26.49;21.51;97857.09;5050854;28;19974;-94
2023/11/07 05:16:10;;;;;;;;;;;;;;;26.50;21.38;97853.81;5056232;28;20396;-95
2023/11/07 05:18:37;;;;;;;;;;;;;;;26.43;21.80;97862.50;5051509;28;19983;-92
2023/11/07 05:21:04;;;;;;;;;;;;;;;26.58;21.40;97860.75;5046340;28;19917;-92
2023/11/07 05:23:30;;;;;;;;;;;;;;;26.63;21.63;97857.34;5048041;28;19975;-93
2023/11/07 05:25:57;;;;;;;;;;;;;;;26.76;21.12;97860.16;5053609;28;19964;-95
2023/11/07 05:28:23;;;;;;;;;;;;;;;26.70;21.97;97868.38;5049698;28;19921;-95
2023/11/07 05:30:49;;;;;;;;;;;;;;;26.56;21.76;97871.69;5054100;28;19932;-95
2023/11/07 05:33:15;;;;;;;;;;;;;;;26.48;22.24;97872.41;5051146;28;19931;-95
2023/11/07 05:35:44;;;;;;;;;;;;;;;26.57;22.16;97869.66;5047971;28;19975;-94
2023/11/07 05:38:10;;;;;;;;;;;;;;;26.68;22.02;97872.88;5061457;28;20387;-95
2023/11/07 05:40:36;;;;;;;;;;;;;;;26.77;21.66;97878.63;5046667;28;19944;-92
2023/11/07 05:43:02;;;;;;;;;;;;;;;26.81;21.92;97884.13;5052055;28;19928;-93
2023/11/07 05:45:28;;;;;;;;;;;;;;;26.55;22.06;97892.66;5054581;28;19939;-92
2023/11/07 05:47:55;;;;;;;;;;;;;;;26.50;22.17;97884.78;5052032;28;19972;-91
2023/11/07 05:50:25;;;;;;;;;;;;;;;26.29;22.05;97896.78;5054583;28;19921;-93
2023/11/07 05:52:51;;;;;;;;;;;;;;;26.47;21.87;97899.75;5045740;28;19932;-91
2023/11/07 05:55:18;;;;;;;;;;;;;;;26.44;22.58;97899.91;5054614;28;20000;-90
2023/11/07 05:57:44;;;;;;;;;;;;;;;26.56;22.07;97902.66;5055044;28;19921;-91
2023/11/07 06:00:14;;;;;;;;;;;;;;;26.34;22.26;97906.69;5052317;28;20307;-94
2023/11/07 06:02:57;;;;;;;;;;;;;;;26.07;22.52;97902.28;5054274;28;19921;-95
2023/11/07 06:05:23;;;;;;;;;;;;;;;26.50;22.10;97900.88;5035728;28;20317;-95
2023/11/07 06:07:55;;;;;;;;;;;;;;;26.60;22.27;97908.19;5036466;28;20445;-94
2023/11/07 06:10:21;;;;;;;;;;;;;;;26.46;22.60;97914.31;5049442;28;20008;-95
2023/11/07 06:12:48;;;;;;;;;;;;;;;26.65;22.16;97918.88;5055155;28;20472;-94
2023/11/07 06:15:14;;;;;;;;;;;;;;;26.89;22.06;97919.25;5056067;28;19917;-94
2023/11/07 06:17:40;;;;;;;;;;;;;;;26.97;22.01;97926.22;5054095;28;19921;-94
2023/11/07 06:20:06;;;;;;;;;;;;;;;27.12;21.62;97924.47;5054664;28;19924;-95
2023/11/07 06:22:34;;;;;;;;;;;;;;;27.18;21.47;97923.41;5055745;28;20305;-94
2023/11/07 06:25:01;;;;;;;;;;;;;;;27.22;21.88;97932.50;5051500;28;19940;-94
2023/11/07 06:27:27;;;;;;;;;;;;;;;27.27;21.70;97933.97;5037379;28;19921;-95
2023/11/07 06:29:53;;;;;;;;;;;;;;;27.13;21.80;97948.56;5055659;28;20074;-94
2023/11/07 06:32:19;;;;;;;;;;;;;;;27.14;21.92;97947.34;5049356;28;20386;-94
2023/11/07 06:34:45;;;;;;;;;;;;;;;27.30;21.87;97947.16;5035663;28;19963;-94
2023/11/07 06:37:12;;;;;;;;;;;;;;;27.27;22.21;97951.66;5035634;28;20007;-94
2023/11/07 06:39:39;;;;;;;;;;;;;;;27.26;22.57;97950.06;5035558;28;19921;-93
2023/11/07 06:42:05;;;;;;;;;;;;;;;27.47;22.06;97948.53;5040989;28;19960;-94
2023/11/07 06:44:31;;;;;;;;;;;;;;;27.61;22.42;97952.88;5037234;28;19921;-94
2023/11/07 06:46:57;;;;;;;;;;;;;;;27.58;22.35;97950.97;5055160;28;19928;-94
2023/11/07 06:49:25;;;;;;;;;;;;;;;27.61;22.69;97941.59;5055500;28;19920;-93
2023/11/07 06:51:51;;;;;;;;;;;;;;;27.70;22.42;97945.22;5055319;28;19925;-94
2023/11/07 06:54:17;;;;;;;;;;;;;;;27.79;22.61;97950.13;5070767;28;19966;-93
2023/11/07 06:56:52;;;;;;;;;;;;;;;28.06;22.40;97945.44;5075128;28;19912;-94
2023/11/07 06:59:21;;;;;;;;;;;;;;;28.06;22.83;97958.75;5065481;28;19917;-95
2023/11/07 07:01:48;;;;;;;;;;;;;;;27.93;23.02;97958.84;5049823;28;19960;-94
2023/11/07 07:04:14;;;;;;;;;;;;;;;27.93;23.42;97958.03;5034927;28;19924;-93
2023/11/07 07:06:40;;;;;;;;;;;;;;;28.20;23.21;97965.84;5034809;28;19917;-93
2023/11/07 07:09:08;;;;;;;;;;;;;;;28.41;23.06;97962.97;5038671;28;19927;-93
2023/11/07 07:11:34;;;;;;;;;;;;;;;28.56;22.20;97969.59;5054696;28;19920;-94
2023/11/07 07:14:03;;;;;;;;;;;;;;;28.77;22.28;97964.31;5055012;28;19923;-95
2023/11/07 07:16:32;;;;;;;;;;;;;;;28.92;22.27;97974.53;5053425;28;19939;-94
2023/11/07 07:18:58;;;;;;;;;;;;;;;29.14;22.41;97975.19;5054449;28;19917;-94
2023/11/07 07:21:25;;;;;;;;;;;;;;;29.24;22.42;97982.44;5054639;28;19971;-93
2023/11/07 07:23:51;;;;;;;;;;;;;;;29.42;22.50;97981.66;5054746;28;19916;-91
2023/11/07 07:26:17;;;;;;;;;;;;;;;29.47;22.28;97981.03;5054610;28;20023;-93
2023/11/07 07:28:43;;;;;;;;;;;;;;;29.61;21.94;97982.41;5054594;28;19917;-93
2023/11/07 07:31:10;;;;;;;;;;;;;;;29.72;22.03;97989.16;5053938;28;19928;-94
2023/11/07 07:33:37;;;;;;;;;;;;;;;29.68;22.07;97982.88;5045485;28;20345;-93
2023/11/07 07:36:04;;;;;;;;;;;;;;;29.62;22.83;97983.97;5040796;28;19917;-93
2023/11/07 07:38:31;;;;;;;;;;;;;;;29.41;23.03;97985.72;5053051;28;19923;-93
2023/11/07 07:41:00;;;;;;;;;;;;;;;29.22;22.95;97976.47;5054280;28;19921;-93
2023/11/07 07:43:27;;;;;;;;;;;;;;;29.33;22.16;97978.81;5054244;28;19917;-93
2023/11/07 07:45:53;;;;;;;;;;;;;;;29.60;22.37;97980.81;5054536;28;19917;-91
2023/11/07 07:48:19;;;;;;;;;;;;;;;29.65;22.14;97978.16;5054430;28;19917;-93
2023/11/07 07:50:46;;;;;;;;;;;;;;;29.54;22.53;97972.19;5043854;28;19920;-92
2023/11/07 07:53:15;;;;;;;;;;;;;;;29.73;22.29;97967.28;5041876;28;20344;-93
2023/11/07 07:55:45;;;;;;;;;;;;;;;29.60;22.36;97972.34;5053938;28;20369;-93
2023/11/07 07:58:12;;;;;;;;;;;;;;;29.75;22.23;97974.06;5054262;28;19924;-93
2023/11/07 08:00:38;;;;;;;;;;;;;;;29.65;22.78;97963.22;5053725;28;19917;-93
2023/11/07 08:03:08;;;;;;;;;;;;;;;29.77;22.22;97968.72;5053784;28;19917;-92
2023/11/07 08:05:38;;;;;;;;;;;;;;;30.04;22.28;97979.16;5054016;28;20362;-92
2023/11/07 08:08:06;;;;;;;;;;;;;;;29.65;22.20;97980.97;5040576;28;20355;-92
2023/11/07 08:10:32;;;;;;;;;;;;;;;29.53;22.60;97981.94;5043972;28;20305;-92
2023/11/07 08:12:58;;;;;;;;;;;;;;;29.88;22.27;97983.16;5053809;28;19917;-92
2023/11/07 08:15:27;;;;;;;;;;;;;;;30.34;21.74;97980.97;5053527;28;20374;-92
2023/11/07 08:17:54;;;;;;;;;;;;;;;30.54;21.54;97988.91;5034048;28;20018;-92
2023/11/07 08:20:20;;;;;;;;;;;;;;;30.73;21.50;97984.69;5045388;28;20005;-91
2023/11/07 08:22:46;;;;;;;;;;;;;;;30.68;21.41;97988.97;5050227;28;19978;-91
2023/11/07 08:25:13;;;;;;;;;;;;;;;30.51;21.30;97993.47;5050572;28;19952;-92
2023/11/07 08:27:40;;;;;;;;;;;;;;;30.60;21.45;97990.59;5053456;28;20384;-92
2023/11/07 08:30:09;;;;;;;;;;;;;;;30.56;21.97;97989.19;5049495;28;19917;-91
2023/11/07 08:32:36;;;;;;;;;;;;;;;30.78;21.79;97987.63;5051958;28;19944;-93
2023/11/07 08:35:06;;;;;;;;;;;;;;;30.67;21.60;97995.13;5051702;28;19917;-92
2023/11/07 08:37:33;;;;;;;;;;;;;;;30.81;21.48;97990.81;5045972;28;19923;-92
2023/11/07 08:40:00;;;;;;;;;;;;;;;31.01;21.56;97991.00;5051865;28;19920;-92
2023/11/07 08:42:26;;;;;;;;;;;;;;;31.15;21.18;97985.38;5050447;28;19924;-91
2023/11/07 08:44:52;;;;;;;;;;;;;;;29.99;21.62;97996.81;5055468;28;19927;-93
2023/11/07 08:47:18;;;;;;;;;;;;;;;29.67;22.48;97997.47;5055475;28;19921;-92
2023/11/07 08:49:44;;;;;;;;;;;;;;;28.03;23.91;98002.81;5058035;28;19917;-92
2023/11/07 08:52:10;;;;;;;;;;;;;;;29.27;23.58;98004.13;5052127;28;19937;-93
2023/11/07 08:54:36;;;;;;;;;;;;;;;29.46;22.97;98002.06;5052548;28;20008;-92
2023/11/07 08:57:03;;;;;;;;;;;;;;;28.14;24.30;97998.78;5056116;28;20394;-92
2023/11/07 08:59:29;;;;;;;;;;;;;;;26.91;26.64;98006.94;5054945;28;20039;-94
2023/11/07 09:01:55;;;;;;;;;;;;;;;27.27;25.46;98005.22;5050857;28;19983;-93
2023/11/07 09:04:21;;;;;;;;;;;;;;;27.88;24.35;98001.78;5052519;28;20396;-93
2023/11/07 09:06:47;;;;;;;;;;;;;;;28.18;24.56;98005.84;5056036;28;20320;-92
2023/11/07 09:09:16;;;;;;;;;;;;;;;28.98;24.12;98000.94;5051392;28;19917;-92
2023/11/07 09:11:42;;;;;;;;;;;;;;;28.00;24.68;98000.94;5036496;28;19964;-93
2023/11/07 09:14:09;;;;;;;;;;;;;;;27.68;25.10;98011.84;5046862;28;20375;-93
2023/11/07 09:16:35;;;;;;;;;;;;;;;27.73;25.70;98006.38;5056876;28;19967;-94
2023/11/07 09:19:01;;;;;;;;;;;;;;;27.56;23.89;98010.66;5056547;28;19921;-94
2023/11/07 09:21:27;;;;;;;;;;;;;;;27.02;25.16;98018.63;5048059;28;19998;-93
2023/11/07 09:23:53;;;;;;;;;;;;;;;27.78;23.78;98007.81;5035838;28;20414;-93
2023/11/07 09:26:19;;;;;;;;;;;;;;;28.54;23.67;98013.69;5037492;28;19921;-92
2023/11/07 09:28:45;;;;;;;;;;;;;;;28.37;23.44;98009.53;5039477;28;19921;-93
2023/11/07 09:31:12;;;;;;;;;;;;;;;27.40;23.67;98014.44;5056143;28;19921;-95
2023/11/07 09:33:38;;;;;;;;;;;;;;;28.37;22.89;98012.38;5054596;28;19920;-92
2023/11/07 09:36:06;;;;;;;;;;;;;;;28.75;22.58;98019.25;5054665;28;20297;-93
2023/11/07 09:38:32;;;;;;;;;;;;;;;28.93;21.90;98024.16;5047923;28;19982;-94
2023/11/07 09:40:58;;;;;;;;;;;;;;;27.73;24.50;98033.78;5038652;28;19936;-95
2023/11/07 09:43:26;;;;;;;;;;;;;;;26.76;24.83;98032.00;5046231;28;20278;-94
2023/11/07 09:45:56;;;;;;;;;;;;;;;27.08;24.51;98025.25;5043780;28;20336;-93
2023/11/07 09:48:22;;;;;;;;;;;;;;;26.65;27.07;98026.66;5043762;28;19925;-94
2023/11/07 09:50:51;;;;;;;;;;;;;;;27.78;24.35;98014.25;5056335;28;19917;-94
2023/11/07 09:53:18;;;;;;;;;;;;;;;27.05;24.34;98023.38;5058004;28;19925;-93
2023/11/07 09:55:44;;;;;;;;;;;;;;;26.93;25.47;98027.78;5049765;28;19959;-94
2023/11/07 09:58:15;;;;;;;;;;;;;;;26.98;25.36;98024.38;5052400;28;20374;-94
2023/11/07 10:00:43;;;;;;;;;;;;;;;26.75;25.52;98021.94;5048350;28;19921;-96
2023/11/07 10:03:10;;;;;;;;;;;;;;;27.23;25.78;98015.84;5044930;28;20294;-93
2023/11/07 10:05:38;;;;;;;;;;;;;;;28.77;23.17;98030.09;5037003;28;19917;-94
2023/11/07 10:08:04;;;;;;;;;;;;;;;27.66;24.27;98019.94;5056134;28;19979;-94
2023/11/07 10:10:31;;;;;;;;;;;;;;;27.79;23.91;98017.84;5056001;28;20008;-92
2023/11/07 10:13:07;;;;;;;;;;;;;;;27.79;23.76;98013.00;5057057;28;19970;-93
2023/11/07 10:15:33;;;;;;;;;;;;;;;28.83;22.89;98016.91;5056311;28;19921;-94
2023/11/07 10:18:01;;;;;;;;;;;;;;;29.06;22.64;98005.03;5046975;28;19971;-92
2023/11/07 10:20:28;;;;;;;;;;;;;;;29.72;21.33;98008.97;5047744;28;19925;-92
2023/11/07 10:22:54;;;;;;;;;;;;;;;30.38;21.22;98003.47;5046762;28;19932;-92
2023/11/07 10:25:30;;;;;;;;;;;;;;;31.17;20.43;98008.38;5040820;28;19927;-92
2023/11/07 10:28:00;;;;;;;;;;;;;;;30.29;21.13;98009.94;5052208;28;19929;-93
2023/11/07 10:30:35;;;;;;;;;;;;;;;29.91;20.98;98021.06;5045737;28;19921;-96
2023/11/07 10:33:03;;;;;;;;;;;;;;;29.83;21.24;98006.44;5058503;28;19917;-96
2023/11/07 10:35:32;;;;;;;;;;;;;;;29.14;22.92;98006.28;5047195;28;19927;-94
2023/11/07 10:37:58;;;;;;;;;;;;;;;29.54;21.41;97999.72;5050894;28;20401;-93
2023/11/07 10:40:24;;;;;;;;;;;;;;;29.68;21.41;98010.38;5046356;28;20267;-94
2023/11/07 10:42:50;;;;;;;;;;;;;;;29.37;21.81;98005.69;5049890;28;19921;-92
2023/11/07 10:45:18;;;;;;;;;;;;;;;29.97;20.57;98002.16;5046461;28;19925;-93
2023/11/07 10:47:45;;;;;;;;;;;;;;;29.82;20.65;97996.41;5038021;28;20019;-95
2023/11/07 10:50:17;;;;;;;;;;;;;;;29.09;21.33;98004.09;5055515;28;19924;-94
2023/11/07 10:52:47;;;;;;;;;;;;;;;29.89;20.80;97996.06;5043358;28;19960;-95
2023/11/07 10:55:14;;;;;;;;;;;;;;;30.15;20.92;97990.00;5047034;28;19921;-94
2023/11/07 10:57:46;;;;;;;;;;;;;;;29.90;20.78;97997.63;5050959;28;19921;-94
2023/11/07 11:00:19;;;;;;;;;;;;;;;30.20;21.76;97978.78;5042128;28;19916;-95
2023/11/07 11:02:48;;;;;;;;;;;;;;;28.14;22.19;97995.97;5054486;28;19921;-95
2023/11/07 11:05:15;;;;;;;;;;;;;;;28.72;21.29;97997.59;5052682;28;20442;-93
2023/11/07 11:07:47;;;;;;;;;;;;;;;28.71;21.76;97993.19;5048213;28;20271;-93
2023/11/07 11:10:15;;;;;;;;;;;;;;;28.95;21.64;97986.94;5053914;28;19963;-95
2023/11/07 11:12:43;;;;;;;;;;;;;;;27.90;23.49;97990.00;5057414;28;19921;-95
2023/11/07 11:15:09;;;;;;;;;;;;;;;28.13;22.46;97997.19;5063571;28;19927;-93
2023/11/07 11:17:44;;;;;;;;;;;;;;;28.12;22.30;97993.63;5059236;28;19920;-94
2023/11/07 11:20:19;;;;;;;;;;;;;;;27.98;22.52;97986.44;5052869;28;20050;-94
2023/11/07 11:22:48;;;;;;;;;;;;;;;29.00;21.00;97980.69;5056347;28;20339;-96
2023/11/07 11:25:33;;;;;;;;;;;;;;;28.91;20.69;97970.16;5051642;28;20357;-96
2023/11/07 11:28:00;;;;;;;;;;;;;;;28.36;21.50;97977.69;5045107;28;20313;-95
2023/11/07 11:30:31;;;;;;;;;;;;;;;29.06;20.77;97976.75;5058903;28;19967;-95
2023/11/07 11:33:07;;;;;;;;;;;;;;;28.19;22.36;97975.59;5037506;28;19953;-96
2023/11/07 11:35:35;;;;;;;;;;;;;;;28.83;21.21;97974.53;5053208;28;19936;-96
2023/11/07 11:38:11;;;;;;;;;;;;;;;28.75;21.13;97973.28;5055366;28;19963;-94
2023/11/07 11:40:59;;;;;;;;;;;;;;;28.61;21.04;97971.06;5055524;28;19917;-96
2023/11/07 11:43:26;;;;;;;;;;;;;;;27.87;21.75;97968.34;5051031;28;19917;-96
2023/11/07 11:46:15;;;;;;;;;;;;;;;28.62;21.11;97970.56;5038558;28;19929;-96
2023/11/07 11:48:51;;;;;;;;;;;;;;;28.51;21.76;97969.41;5043585;28;19928;-96
2023/11/07 11:51:36;;;;;;;;;;;;;;;28.87;21.00;97968.75;5053355;28;19976;-96
2023/11/07 11:54:06;;;;;;;;;;;;;;;29.01;20.70;97971.72;5039326;28;19920;-96
2023/11/07 11:56:34;;;;;;;;;;;;;;;28.13;21.76;97968.97;5054986;28;19964;-94
2023/11/07 11:59:01;;;;;;;;;;;;;;;28.95;20.31;97975.63;5044483;28;20455;-96
2023/11/07 12:01:31;;;;;;;;;;;;;;;29.05;20.65;97966.72;5055079;28;19923;-95
2023/11/07 12:03:59;;;;;;;;;;;;;;;29.09;20.00;97973.00;5056054;28;19921;-96
2023/11/07 12:06:25;;;;;;;;;;;;;;;28.63;20.55;97963.69;5046060;28;19925;-96
2023/11/07 12:08:52;;;;;;;;;;;;;;;29.43;19.70;97972.69;5054118;28;20286;-96
2023/11/07 12:11:18;;;;;;;;;;;;;;;30.17;19.43;97961.97;5046728;28;19951;-96
2023/11/07 12:13:44;;;;;;;;;;;;;;;28.58;21.24;97964.25;5053192;28;19992;-95
2023/11/07 12:16:13;;;;;;;;;;;;;;;30.05;19.10;97955.25;5044473;28;19924;-95
2023/11/07 12:18:49;;;;;;;;;;;;;;;28.83;21.42;97965.25;5033028;28;19925;-95
2023/11/07 12:21:23;;;;;;;;;;;;;;;28.78;19.69;97955.38;5032795;28;20452;-96
2023/11/07 12:23:53;;;;;;;;;;;;;;;29.04;19.09;97950.19;5051415;28;19924;-94
2023/11/07 12:26:20;;;;;;;;;;;;;;;29.41;18.80;97951.78;5046561;28;19957;-94
2023/11/07 12:28:46;;;;;;;;;;;;;;;29.68;19.32;97948.13;5044222;28;20301;-94
2023/11/07 12:31:12;;;;;;;;;;;;;;;28.66;21.33;97950.63;5052852;28;19920;-95
2023/11/07 12:33:42;;;;;;;;;;;;;;;27.98;20.95;97951.81;5045975;28;19925;-94
2023/11/07 12:36:10;;;;;;;;;;;;;;;27.84;22.20;97946.72;5031270;28;19943;-96
2023/11/07 12:38:37;;;;;;;;;;;;;;;28.03;21.72;97952.00;5033662;28;19918;-95
2023/11/07 12:41:05;;;;;;;;;;;;;;;28.52;20.76;97942.75;5051922;28;19964;-95
2023/11/07 12:43:35;;;;;;;;;;;;;;;29.68;20.26;97942.47;5045580;28;20374;-94
2023/11/07 12:46:02;;;;;;;;;;;;;;;29.81;18.88;97945.91;5032027;28;19921;-95
2023/11/07 12:48:28;;;;;;;;;;;;;;;29.62;19.06;97955.66;5037351;28;19968;-94